Time;durP1;ratioP1;P1;durP2;ratioP2;P2;SDS_P1;SDS_P2;PMS_P1;PMS_P2;Temp;Humidity;BMP_temperature;BMP_pressure;BME280_temperature;BME280_humidity;BME280_pressure;Samples;Min_cycle;Max_cycle;Signal;HPM_P1;HPM_P2
2023/10/11 00:00:47;;;;;;;30.38;12.93;;;;;;;10.89;nan;100600.53;2099934;28;20860;-72
2023/10/11 00:01:52;;;;;;;25.13;12.05;;;;;;;10.90;nan;100599.44;2091733;28;20029;-72
2023/10/11 00:02:55;;;;;;;29.23;11.95;;;;;;;10.94;nan;100598.91;2099762;28;20040;-71
2023/10/11 00:03:58;;;;;;;29.33;12.25;;;;;;;10.93;nan;100591.91;2090128;28;20036;-71
2023/10/11 00:05:03;;;;;;;29.70;11.65;;;;;;;10.97;nan;100592.94;2091191;28;20148;-72
2023/10/11 00:06:05;;;;;;;28.35;12.20;;;;;;;10.99;nan;100586.22;2091919;28;20160;-71
2023/10/11 00:07:09;;;;;;;27.25;11.70;;;;;;;11.02;nan;100582.97;2107052;28;20863;-71
2023/10/11 00:08:17;;;;;;;27.20;12.48;;;;;;;11.03;nan;100581.88;2098832;28;20060;-72
2023/10/11 00:09:19;;;;;;;26.50;12.15;;;;;;;10.97;nan;100569.56;2100270;28;20128;-71
2023/10/11 00:10:27;;;;;;;26.55;12.63;;;;;;;11.07;nan;100576.75;2107587;28;20234;-72
2023/10/11 00:11:30;;;;;;;30.15;11.90;;;;;;;11.05;nan;100568.16;2091004;28;20029;-71
2023/10/11 00:12:33;;;;;;;27.25;12.10;;;;;;;11.06;nan;100572.44;2091004;28;20092;-72
2023/10/11 00:13:36;;;;;;;29.50;12.15;;;;;;;11.06;nan;100569.75;2091187;28;20060;-71
2023/10/11 00:14:39;;;;;;;24.13;11.40;;;;;;;11.06;nan;100559.00;2091147;28;20801;-71
2023/10/11 00:15:43;;;;;;;29.95;12.05;;;;;;;11.01;nan;100557.16;2091412;28;20050;-71
2023/10/11 00:16:53;;;;;;;25.75;12.45;;;;;;;11.03;nan;100557.66;2107815;28;21025;-72
2023/10/11 00:17:58;;;;;;;26.88;12.40;;;;;;;11.05;nan;100552.00;2107402;28;20816;-72
2023/10/11 00:19:06;;;;;;;24.40;12.05;;;;;;;11.07;nan;100549.84;2098914;28;20855;-72
2023/10/11 00:21:40;;;;;;;32.22;11.93;;;;;;;11.04;nan;100539.66;2108478;28;20828;-71
2023/10/11 00:22:45;;;;;;;28.00;11.63;;;;;;;11.06;nan;100545.53;2098725;28;20147;-71
2023/10/11 00:23:50;;;;;;;28.58;12.65;;;;;;;11.01;nan;100553.66;2090551;28;20067;-71
2023/10/11 00:24:53;;;;;;;28.35;12.35;;;;;;;10.97;nan;100545.34;2091991;28;20036;-71
2023/10/11 00:26:00;;;;;;;28.48;12.10;;;;;;;11.05;nan;100557.41;2091950;28;20037;-72
2023/10/11 00:27:02;;;;;;;27.00;12.00;;;;;;;11.07;nan;100557.94;2101081;28;20889;-73
2023/10/11 00:28:08;;;;;;;28.23;12.07;;;;;;;11.12;nan;100565.94;2107377;28;20043;-72
2023/10/11 00:29:13;;;;;;;27.77;12.32;;;;;;;11.16;nan;100558.94;2091095;28;20037;-72
2023/10/11 00:30:17;;;;;;;26.27;11.90;;;;;;;11.17;nan;100557.84;2091562;28;20172;-72
2023/10/11 00:31:19;;;;;;;26.45;11.60;;;;;;;11.20;nan;100559.97;2099990;28;20033;-75
2023/10/11 00:32:22;;;;;;;27.52;11.25;;;;;;;11.21;nan;100561.56;2099220;28;20056;-72
2023/10/11 00:33:27;;;;;;;27.08;12.38;;;;;;;11.20;nan;100561.84;2089494;28;20146;-72
2023/10/11 00:34:29;;;;;;;26.52;11.88;;;;;;;11.20;nan;100553.78;2092562;28;20124;-72
2023/10/11 00:35:32;;;;;;;26.40;12.50;;;;;;;11.17;nan;100552.44;2106756;28;20044;-73
2023/10/11 00:36:37;;;;;;;24.38;10.80;;;;;;;11.22;nan;100556.97;2107344;28;20139;-73
2023/10/11 00:37:39;;;;;;;30.15;12.48;;;;;;;11.21;nan;100553.47;2108305;28;20147;-72
2023/10/11 00:38:46;;;;;;;24.23;12.00;;;;;;;11.26;nan;100547.28;2090107;28;20069;-72
2023/10/11 00:39:48;;;;;;;24.27;10.82;;;;;;;11.29;nan;100555.56;2076730;28;20025;-72
2023/10/11 00:41:12;;;;;;;25.02;11.55;;;;;;;11.31;nan;100550.69;2090987;28;20765;-72
2023/10/11 00:42:14;;;;;;;28.83;11.82;;;;;;;11.34;nan;100555.50;2093809;28;20148;-72
2023/10/11 00:43:21;;;;;;;26.10;11.90;;;;;;;11.34;nan;100544.75;2090821;28;20796;-73
2023/10/11 00:44:23;;;;;;;26.45;11.27;;;;;;;11.34;nan;100550.13;2099962;28;20890;-73
2023/10/11 00:45:31;;;;;;;25.70;11.40;;;;;;;11.35;nan;100551.75;2098943;28;20915;-73
2023/10/11 00:46:44;;;;;;;26.67;12.05;;;;;;;11.38;nan;100550.38;2092578;28;20025;-72
2023/10/11 00:47:46;;;;;;;25.95;11.70;;;;;;;11.34;nan;100547.44;2092051;28;20034;-72
2023/10/11 00:50:14;;;;;;;22.83;10.90;;;;;;;11.40;nan;100547.41;2101739;28;20040;-72
2023/10/11 00:51:19;;;;;;;30.13;12.70;;;;;;;11.40;nan;100550.88;2083378;28;20134;-73
2023/10/11 00:52:24;;;;;;;26.65;11.40;;;;;;;11.39;nan;100541.22;2091607;28;20043;-73
2023/10/11 00:53:34;;;;;;;27.10;11.52;;;;;;;11.40;nan;100537.44;2095455;28;20033;-72
2023/10/11 00:54:43;;;;;;;27.50;11.95;;;;;;;11.37;nan;100538.78;2091635;28;20072;-72
2023/10/11 00:55:46;;;;;;;25.00;11.35;;;;;;;11.32;nan;100520.03;2101212;28;20944;-73
2023/10/11 00:56:48;;;;;;;27.20;11.57;;;;;;;11.37;nan;100538.78;2107403;28;20032;-73
2023/10/11 00:57:53;;;;;;;24.38;10.82;;;;;;;11.39;nan;100529.66;2107093;28;20210;-72
2023/10/11 00:58:55;;;;;;;29.20;12.90;;;;;;;11.39;nan;100519.69;2098648;28;20847;-73
2023/10/11 01:00:04;;;;;;;27.95;11.30;;;;;;;11.41;nan;100527.47;2092085;28;20032;-72
2023/10/11 01:01:08;;;;;;;30.02;12.07;;;;;;;11.43;nan;100515.31;2090891;28;20029;-72
2023/10/11 01:02:14;;;;;;;25.40;11.85;;;;;;;11.47;nan;100531.72;2083530;28;20919;-72
2023/10/11 01:03:17;;;;;;;24.85;10.68;;;;;;;11.49;nan;100524.16;2091709;28;20031;-73
2023/10/11 01:04:19;;;;;;;27.38;11.57;;;;;;;11.51;nan;100519.31;2098309;28;20025;-73
2023/10/11 01:05:22;;;;;;;29.27;12.45;;;;;;;11.53;nan;100517.09;2099204;28;20037;-73
2023/10/11 01:06:28;;;;;;;29.15;12.50;;;;;;;11.53;nan;100512.53;2098658;28;20029;-72
2023/10/11 01:07:30;;;;;;;26.23;12.02;;;;;;;11.55;nan;100513.03;2075787;28;20038;-73
2023/10/11 01:08:38;;;;;;;25.77;12.43;;;;;;;11.57;nan;100510.88;2082515;28;20026;-72
2023/10/11 01:09:40;;;;;;;27.20;12.45;;;;;;;11.56;nan;100503.88;2092891;28;20041;-72
2023/10/11 01:10:45;;;;;;;26.77;11.88;;;;;;;11.53;nan;100509.03;2107018;28;20906;-72
2023/10/11 01:11:47;;;;;;;24.73;11.30;;;;;;;11.51;nan;100501.25;2107634;28;20037;-73
2023/10/11 01:12:49;;;;;;;30.80;12.32;;;;;;;11.50;nan;100493.44;2090559;28;20105;-72
2023/10/11 01:13:54;;;;;;;30.60;12.13;;;;;;;11.49;nan;100505.31;2099947;28;20025;-73
2023/10/11 01:14:59;;;;;;;23.70;10.77;;;;;;;11.48;nan;100493.75;2107178;28;20214;-73
2023/10/11 01:16:09;;;;;;;24.70;11.73;;;;;;;11.49;nan;100487.25;2099050;28;20021;-74
2023/10/11 01:17:16;;;;;;;27.50;12.18;;;;;;;11.50;nan;100480.78;2091605;28;20231;-73
2023/10/11 01:18:19;;;;;;;24.27;12.05;;;;;;;11.52;nan;100488.59;2091184;28;20773;-73
2023/10/11 01:19:23;;;;;;;25.35;11.77;;;;;;;11.49;nan;100475.69;2081801;28;20038;-73
2023/10/11 01:20:29;;;;;;;30.65;13.10;;;;;;;11.49;nan;100486.47;2091465;28;20053;-73
2023/10/11 01:21:34;;;;;;;28.23;12.05;;;;;;;11.48;nan;100476.78;2091461;28;21276;-73
2023/10/11 01:22:36;;;;;;;30.00;12.90;;;;;;;11.50;nan;100477.28;2091002;28;20036;-73
2023/10/11 01:23:40;;;;;;;25.80;12.00;;;;;;;11.50;nan;100474.59;2088622;28;20140;-73
2023/10/11 01:24:44;;;;;;;25.33;11.77;;;;;;;11.54;nan;100475.66;2091257;28;20137;-74
2023/10/11 01:25:47;;;;;;;28.98;12.25;;;;;;;11.56;nan;100479.63;2100251;28;20043;-73
2023/10/11 01:26:51;;;;;;;24.92;12.05;;;;;;;11.59;nan;100480.97;2098346;28;20822;-73
2023/10/11 01:27:53;;;;;;;28.55;12.32;;;;;;;11.61;nan;100484.19;2091118;28;20030;-73
2023/10/11 01:28:56;;;;;;;26.67;11.35;;;;;;;11.60;nan;100487.94;2090375;28;20044;-74
2023/10/11 01:29:58;;;;;;;27.95;12.23;;;;;;;11.59;nan;100487.13;2090390;28;20049;-74
2023/10/11 01:31:01;;;;;;;25.10;11.93;;;;;;;11.62;nan;100493.84;2090635;28;20021;-74
2023/10/11 01:32:06;;;;;;;25.95;12.00;;;;;;;11.64;nan;100493.56;2098883;28;20028;-74
2023/10/11 01:33:08;;;;;;;28.70;12.18;;;;;;;11.63;nan;100497.34;2091563;28;20029;-74
2023/10/11 01:34:14;;;;;;;27.77;12.18;;;;;;;11.61;nan;100494.94;2083248;28;20143;-74
2023/10/11 01:35:19;;;;;;;27.33;12.05;;;;;;;11.61;nan;100478.78;2084561;28;20030;-74
2023/10/11 01:36:21;;;;;;;26.75;11.50;;;;;;;11.61;nan;100478.78;2099706;28;20884;-73
2023/10/11 01:37:26;;;;;;;30.67;12.75;;;;;;;11.62;nan;100466.91;2090523;28;20901;-73
2023/10/11 01:38:29;;;;;;;30.42;11.93;;;;;;;11.63;nan;100460.44;2099172;28;20143;-71
2023/10/11 01:39:33;;;;;;;31.33;12.48;;;;;;;11.61;nan;100465.31;2098261;28;20029;-71
2023/10/11 01:40:39;;;;;;;30.77;13.13;;;;;;;11.65;nan;100465.56;2074217;28;20142;-72
2023/10/11 01:41:42;;;;;;;30.90;12.93;;;;;;;11.68;nan;100464.97;2083841;28;20033;-71
2023/10/11 01:42:51;;;;;;;30.35;12.55;;;;;;;11.72;nan;100466.00;2107303;28;20017;-72
2023/10/11 01:43:54;;;;;;;30.83;12.82;;;;;;;11.73;nan;100462.22;2083340;28;20038;-71
2023/10/11 01:45:00;;;;;;;27.33;10.93;;;;;;;11.74;nan;100461.94;2084388;28;20022;-71
2023/10/11 01:46:02;;;;;;;26.42;12.48;;;;;;;11.73;nan;100460.34;2099420;28;20029;-72
2023/10/11 01:47:06;;;;;;;26.85;12.02;;;;;;;11.72;nan;100461.41;2089444;28;20029;-72
2023/10/11 01:48:10;;;;;;;25.15;11.45;;;;;;;11.73;nan;100452.25;2090830;28;20026;-71
2023/10/11 01:49:12;;;;;;;29.65;12.65;;;;;;;11.74;nan;100453.84;2089634;28;20144;-72
2023/10/11 01:50:16;;;;;;;27.83;12.88;;;;;;;11.75;nan;100452.75;2090629;28;20131;-71
2023/10/11 01:51:26;;;;;;;27.77;12.32;;;;;;;11.74;nan;100453.06;2099408;28;20041;-72
2023/10/11 01:52:47;;;;;;;32.35;12.73;;;;;;;11.75;nan;100458.13;2100819;28;20068;-72
2023/10/11 01:53:49;;;;;;;27.40;12.90;;;;;;;11.73;nan;100444.19;2106120;28;20016;-71
2023/10/11 01:54:51;;;;;;;29.48;12.18;;;;;;;11.73;nan;100443.38;2098575;28;20151;-72
2023/10/11 01:55:55;;;;;;;28.83;12.60;;;;;;;11.74;nan;100447.66;2090585;28;20242;-72
2023/10/11 01:57:01;;;;;;;31.90;12.85;;;;;;;11.74;nan;100440.38;2098367;28;20143;-72
2023/10/11 01:58:06;;;;;;;29.23;11.82;;;;;;;11.75;nan;100441.97;2093020;28;20018;-72
2023/10/11 01:59:12;;;;;;;36.25;12.00;;;;;;;11.74;nan;100437.69;2090682;28;20132;-72
2023/10/11 02:00:15;;;;;;;30.25;12.07;;;;;;;11.77;nan;100434.41;2082802;28;20049;-72
2023/10/11 02:01:39;;;;;;;28.98;13.23;;;;;;;11.77;nan;100437.13;2082616;28;20844;-73
2023/10/11 02:02:47;;;;;;;26.42;12.02;;;;;;;11.78;nan;100440.59;2099418;28;20867;-73
2023/10/11 02:03:56;;;;;;;27.80;12.63;;;;;;;11.79;nan;100439.50;2108171;28;20783;-73
2023/10/11 02:04:59;;;;;;;30.17;12.80;;;;;;;11.77;nan;100445.19;2091264;28;20073;-73
2023/10/11 02:06:04;;;;;;;27.50;11.68;;;;;;;11.78;nan;100429.81;2082665;28;20033;-73
2023/10/11 02:07:07;;;;;;;35.30;12.93;;;;;;;11.80;nan;100438.44;2082351;28;20033;-73
2023/10/11 02:08:14;;;;;;;30.10;12.77;;;;;;;11.82;nan;100430.84;2091065;28;20041;-74
2023/10/11 02:09:20;;;;;;;29.65;12.32;;;;;;;11.81;nan;100435.44;2106911;28;20066;-74
2023/10/11 02:10:26;;;;;;;32.40;12.55;;;;;;;11.81;nan;100430.03;2090007;28;20038;-74
2023/10/11 02:11:30;;;;;;;27.02;12.73;;;;;;;11.83;nan;100427.88;2083415;28;20136;-74
2023/10/11 02:12:49;;;;;;;28.73;12.50;;;;;;;11.85;nan;100416.81;2094906;28;20020;-73
2023/10/11 02:13:54;;;;;;;26.83;12.15;;;;;;;11.90;nan;100413.28;2090598;28;20033;-73
2023/10/11 02:14:56;;;;;;;29.30;11.90;;;;;;;11.91;nan;100417.56;2090683;28;20068;-73
2023/10/11 02:16:00;;;;;;;27.58;12.27;;;;;;;11.93;nan;100418.09;2090532;28;20034;-73
2023/10/11 02:17:07;;;;;;;29.48;12.15;;;;;;;11.94;nan;100416.97;2099559;28;20021;-73
2023/10/11 02:18:10;;;;;;;33.47;12.98;;;;;;;11.92;nan;100413.78;2099200;28;21150;-73
2023/10/11 02:19:15;;;;;;;29.80;13.00;;;;;;;11.91;nan;100417.56;2089926;28;20089;-73
2023/10/11 02:20:21;;;;;;;29.88;12.02;;;;;;;11.92;nan;100419.97;2099238;28;20040;-73
2023/10/11 02:21:24;;;;;;;36.38;13.05;;;;;;;11.92;nan;100425.38;2106789;28;20048;-73
2023/10/11 02:22:26;;;;;;;28.70;13.13;;;;;;;11.92;nan;100419.19;2090112;28;20867;-73
2023/10/11 02:23:37;;;;;;;28.13;12.30;;;;;;;11.93;nan;100420.78;2093433;28;20086;-73
2023/10/11 02:24:45;;;;;;;29.52;11.93;;;;;;;11.94;nan;100420.47;2100717;28;20033;-73
2023/10/11 02:25:50;;;;;;;30.48;12.77;;;;;;;11.94;nan;100411.59;2098813;28;20110;-74
2023/10/11 02:26:54;;;;;;;29.98;12.85;;;;;;;11.93;nan;100405.41;2083062;28;20753;-74
2023/10/11 02:27:58;;;;;;;29.08;12.98;;;;;;;11.95;nan;100411.31;2090546;28;20040;-73
2023/10/11 02:29:15;;;;;;;31.08;12.82;;;;;;;11.98;nan;100413.44;2091788;28;20033;-74
2023/10/11 02:30:24;;;;;;;28.70;12.75;;;;;;;12.03;nan;100401.75;2091694;28;20741;-74
2023/10/11 02:31:31;;;;;;;34.92;13.77;;;;;;;12.03;nan;100405.25;2085100;28;20037;-73
2023/10/11 02:32:38;;;;;;;31.98;13.07;;;;;;;12.02;nan;100402.88;2083541;28;20030;-73
2023/10/11 02:34:03;;;;;;;29.75;12.38;;;;;;;12.08;nan;100400.91;2102943;28;21006;-72
2023/10/11 02:35:07;;;;;;;28.55;12.13;;;;;;;12.09;nan;100400.59;2091358;28;20029;-73
2023/10/11 02:36:18;;;;;;;30.15;12.68;;;;;;;12.12;nan;100388.44;2091534;28;20112;-74
2023/10/11 02:37:22;;;;;;;27.27;12.05;;;;;;;12.11;nan;100389.53;2089922;28;20202;-74
2023/10/11 02:38:25;;;;;;;29.42;11.85;;;;;;;12.13;nan;100385.44;2073763;28;20027;-74
2023/10/11 02:39:34;;;;;;;31.42;13.55;;;;;;;12.14;nan;100389.75;2090162;28;20034;-74
2023/10/11 02:40:38;;;;;;;29.40;12.35;;;;;;;12.14;nan;100387.06;2090641;28;20086;-74
2023/10/11 02:41:40;;;;;;;33.30;12.55;;;;;;;12.18;nan;100388.06;2082749;28;20200;-74
2023/10/11 02:42:43;;;;;;;23.52;11.70;;;;;;;12.19;nan;100381.56;2081933;28;20069;-75
2023/10/11 02:43:48;;;;;;;28.88;12.50;;;;;;;12.20;nan;100376.97;2082527;28;20156;-74
2023/10/11 02:44:52;;;;;;;26.17;12.43;;;;;;;12.18;nan;100377.28;2091244;28;20041;-74
2023/10/11 02:45:59;;;;;;;30.55;12.63;;;;;;;12.19;nan;100360.00;2115188;28;20090;-73
2023/10/11 02:47:06;;;;;;;26.65;11.82;;;;;;;12.23;nan;100379.91;2106387;28;20090;-74
2023/10/11 02:48:12;;;;;;;29.85;12.25;;;;;;;12.24;nan;100378.81;2090902;28;20034;-74
2023/10/11 02:49:19;;;;;;;31.15;12.93;;;;;;;12.25;nan;100380.41;2090199;28;20950;-74
2023/10/11 02:50:26;;;;;;;30.38;12.07;;;;;;;12.29;nan;100376.03;2098177;28;20872;-74
2023/10/11 02:51:29;;;;;;;25.80;11.73;;;;;;;12.32;nan;100376.53;2098081;28;20052;-74
2023/10/11 02:52:37;;;;;;;29.88;12.77;;;;;;;12.32;nan;100371.13;2091509;28;20022;-74
2023/10/11 02:53:56;;;;;;;24.70;11.43;;;;;;;12.31;nan;100370.34;2104298;28;20036;-74
2023/10/11 02:54:59;;;;;;;29.25;12.27;;;;;;;12.33;nan;100367.38;2090343;28;20828;-74
2023/10/11 02:56:04;;;;;;;28.48;12.63;;;;;;;12.35;nan;100373.25;2090597;28;20036;-74
2023/10/11 02:57:09;;;;;;;27.50;12.07;;;;;;;12.37;nan;100362.97;2098423;28;20048;-74
2023/10/11 02:58:21;;;;;;;27.02;12.18;;;;;;;12.38;nan;100357.28;2090107;28;20025;-74
2023/10/11 02:59:23;;;;;;;26.13;11.85;;;;;;;12.39;nan;100353.50;2082625;28;20831;-74
2023/10/11 03:00:25;;;;;;;25.15;11.90;;;;;;;12.42;nan;100361.00;2081910;28;20033;-74
2023/10/11 03:01:31;;;;;;;28.83;11.90;;;;;;;12.44;nan;100358.00;2082670;28;20034;-73
2023/10/11 03:02:39;;;;;;;31.08;11.88;;;;;;;12.46;nan;100356.63;2083106;28;20148;-73
2023/10/11 03:03:44;;;;;;;25.73;11.18;;;;;;;12.50;nan;100354.13;2092284;28;20071;-72
2023/10/11 03:04:46;;;;;;;29.00;11.73;;;;;;;12.48;nan;100345.50;2090174;28;20064;-73
2023/10/11 03:05:48;;;;;;;28.23;11.73;;;;;;;12.51;nan;100344.94;2089795;28;20139;-73
2023/10/11 03:06:51;;;;;;;26.08;12.43;;;;;;;12.49;nan;100341.75;2090412;28;20028;-74
2023/10/11 03:08:19;;;;;;;27.50;12.18;;;;;;;12.51;nan;100339.53;2091935;28;20030;-74
2023/10/11 03:09:27;;;;;;;25.42;11.48;;;;;;;12.51;nan;100342.22;2089291;28;20041;-74
2023/10/11 03:10:35;;;;;;;32.28;13.57;;;;;;;12.51;nan;100336.84;2083890;28;20068;-74
2023/10/11 03:11:45;;;;;;;29.15;13.18;;;;;;;12.52;nan;100346.53;2091917;28;20816;-74
2023/10/11 03:12:52;;;;;;;27.20;12.23;;;;;;;12.55;nan;100345.94;2091392;28;20034;-73
2023/10/11 03:13:54;;;;;;;29.25;12.27;;;;;;;12.56;nan;100339.47;2091717;28;20033;-74
2023/10/11 03:14:56;;;;;;;25.17;11.85;;;;;;;12.55;nan;100329.78;2107037;27;20075;-74
2023/10/11 03:15:58;;;;;;;26.60;12.10;;;;;;;12.54;nan;100333.53;2114486;28;20042;-74
2023/10/11 03:17:06;;;;;;;26.98;12.07;;;;;;;12.51;nan;100329.56;2089853;28;20089;-74
2023/10/11 03:18:07;;;;;;;26.40;12.10;;;;;;;12.53;nan;100334.66;2083691;28;20046;-74
2023/10/11 03:19:10;;;;;;;26.80;12.35;;;;;;;12.52;nan;100327.66;2089989;28;20037;-74
2023/10/11 03:20:27;;;;;;;27.83;12.38;;;;;;;12.52;nan;100325.78;2088494;28;21981;-74
2023/10/11 03:21:33;;;;;;;26.48;11.93;;;;;;;12.55;nan;100313.59;2102747;28;20811;-76
2023/10/11 03:22:35;;;;;;;27.70;12.75;;;;;;;12.56;nan;100319.78;2098663;28;20032;-74
2023/10/11 03:23:45;;;;;;;27.08;12.07;;;;;;;12.57;nan;100310.59;2097668;28;20049;-74
2023/10/11 03:24:53;;;;;;;28.95;11.98;;;;;;;12.60;nan;100308.09;2083989;28;20745;-74
2023/10/11 03:25:55;;;;;;;30.98;12.68;;;;;;;12.62;nan;100299.72;2091814;28;20965;-74
2023/10/11 03:27:00;;;;;;;23.05;11.30;;;;;;;12.65;nan;100304.50;2089851;28;20891;-74
2023/10/11 03:28:02;;;;;;;26.52;11.75;;;;;;;12.64;nan;100295.63;2090403;28;20783;-73
2023/10/11 03:29:04;;;;;;;25.02;11.48;;;;;;;12.63;nan;100291.31;2098469;28;20040;-72
2023/10/11 03:30:13;;;;;;;29.30;12.07;;;;;;;12.61;nan;100287.31;2106373;28;20040;-72
2023/10/11 03:31:15;;;;;;;25.92;12.23;;;;;;;12.63;nan;100291.31;2115011;28;20024;-72
2023/10/11 03:32:24;;;;;;;29.77;12.13;;;;;;;12.63;nan;100280.53;2106023;28;20028;-72
2023/10/11 03:33:32;;;;;;;27.52;13.23;;;;;;;12.63;nan;100287.81;2101238;28;20080;-72
2023/10/11 03:34:42;;;;;;;24.55;11.52;;;;;;;12.62;nan;100280.84;2108540;28;20024;-72
2023/10/11 03:35:50;;;;;;;26.30;12.32;;;;;;;12.64;nan;100279.44;2106556;28;20747;-73
2023/10/11 03:36:52;;;;;;;27.55;12.43;;;;;;;12.64;nan;100284.84;2097703;28;20099;-73
2023/10/11 03:38:05;;;;;;;24.58;12.25;;;;;;;12.65;nan;100281.03;2081553;28;20145;-74
2023/10/11 03:39:10;;;;;;;24.10;11.88;;;;;;;12.66;nan;100274.53;2087976;28;20853;-74
2023/10/11 03:40:27;;;;;;;29.88;12.70;;;;;;;12.70;nan;100278.25;2097312;28;20029;-74
2023/10/11 03:41:29;;;;;;;26.80;12.07;;;;;;;12.71;nan;100271.75;2091509;28;20030;-75
2023/10/11 03:44:09;;;;;;;27.95;13.00;;;;;;;12.74;nan;100263.06;2090311;28;20048;-76
2023/10/11 03:45:12;;;;;;;27.33;12.68;;;;;;;12.74;nan;100263.06;2090841;28;20075;-76
2023/10/11 03:46:15;;;;;;;26.98;12.23;;;;;;;12.78;nan;100270.53;2098314;28;20048;-76
2023/10/11 03:47:26;;;;;;;27.85;12.55;;;;;;;12.81;nan;100262.66;2089462;28;20057;-76
2023/10/11 03:48:30;;;;;;;27.83;12.00;;;;;;;12.83;nan;100265.84;2092643;28;20788;-75
2023/10/11 03:50:34;;;;;;;24.50;11.68;;;;;;;12.84;nan;100259.34;2101584;28;20021;-75
2023/10/11 03:51:36;;;;;;;24.52;12.05;;;;;;;12.80;nan;100244.06;2097459;28;20025;-74
2023/10/11 03:52:40;;;;;;;26.52;12.13;;;;;;;12.84;nan;100255.88;2096732;28;20060;-73
2023/10/11 03:53:47;;;;;;;28.15;12.10;;;;;;;12.85;nan;100250.16;2096600;28;20033;-73
2023/10/11 03:55:01;;;;;;;28.23;12.02;;;;;;;12.88;nan;100241.44;2090886;28;20022;-74
2023/10/11 03:56:17;;;;;;;27.58;12.40;;;;;;;12.92;nan;100238.94;2109273;28;20862;-74
2023/10/11 03:57:19;;;;;;;22.58;11.48;;;;;;;12.91;nan;100246.25;2105609;28;20033;-75
2023/10/11 03:58:33;;;;;;;27.27;12.93;;;;;;;12.91;nan;100237.34;2090100;28;20939;-75
2023/10/11 03:59:38;;;;;;;27.25;11.80;;;;;;;12.89;nan;100244.94;2089962;28;20099;-74
2023/10/11 04:00:48;;;;;;;27.10;12.32;;;;;;;12.92;nan;100231.66;2090626;28;20148;-74
2023/10/11 04:01:50;;;;;;;26.90;11.98;;;;;;;12.92;nan;100236.25;2097118;28;20857;-73
2023/10/11 04:02:57;;;;;;;23.98;11.95;;;;;;;12.92;nan;100233.56;2097705;28;20073;-74
2023/10/11 04:03:59;;;;;;;25.20;12.35;;;;;;;12.91;nan;100230.06;2097894;28;20072;-75
2023/10/11 04:05:05;;;;;;;27.20;12.48;;;;;;;12.92;nan;100225.47;2081595;28;20041;-74
2023/10/11 04:06:19;;;;;;;28.33;12.70;;;;;;;12.96;nan;100224.56;2103393;28;20024;-74
2023/10/11 04:07:23;;;;;;;27.52;13.32;;;;;;;13.01;nan;100231.75;2105560;28;20159;-74
2023/10/11 04:08:25;;;;;;;29.90;13.25;;;;;;;13.02;nan;100225.25;2094748;28;20069;-74
2023/10/11 04:10:49;;;;;;;30.67;12.57;;;;;;;13.07;nan;100232.44;2108302;28;20098;-74
2023/10/11 04:11:55;;;;;;;27.73;12.75;;;;;;;13.05;nan;100232.75;2107629;28;20017;-75
2023/10/11 04:12:56;;;;;;;28.00;12.70;;;;;;;13.04;nan;100230.34;2095147;28;20068;-75
2023/10/11 04:13:58;;;;;;;28.42;13.10;;;;;;;13.05;nan;100230.06;2090653;28;20042;-75
2023/10/11 04:15:10;;;;;;;28.38;12.15;;;;;;;13.02;nan;100230.66;2082804;28;20030;-79
2023/10/11 04:16:14;;;;;;;26.25;12.05;;;;;;;13.06;nan;100226.25;2093835;28;20037;-77
2023/10/11 04:19:31;;;;;;;25.00;12.27;;;;;;;13.15;nan;100202.84;2106949;28;20118;-79
2023/10/11 04:20:34;;;;;;;27.80;13.02;;;;;;;13.18;nan;100218.44;2091762;28;20963;-79
2023/10/11 04:21:53;;;;;;;27.65;12.73;;;;;;;13.15;nan;100202.03;2099061;28;20052;-78
2023/10/11 04:23:10;;;;;;;27.50;12.80;;;;;;;13.17;nan;100197.91;2101680;28;20961;-79
2023/10/11 04:24:13;;;;;;;29.20;12.70;;;;;;;13.20;nan;100191.09;2101520;28;20025;-79
2023/10/11 04:25:17;;;;;;;27.48;12.88;;;;;;;13.21;nan;100196.22;2091039;28;20899;-79
2023/10/11 04:28:41;;;;;;;30.45;13.80;;;;;;;13.22;nan;100187.00;2083211;28;20022;-79
2023/10/11 04:29:50;;;;;;;23.80;12.35;;;;;;;13.26;nan;100186.44;2084179;28;20046;-78
2023/10/11 04:31:27;;;;;;;29.33;14.13;;;;;;;13.22;nan;100183.50;2084431;28;20136;-80
2023/10/11 04:32:32;;;;;;;25.33;12.18;;;;;;;13.22;nan;100181.59;2101350;28;20032;-75
2023/10/11 04:33:37;;;;;;;27.05;12.57;;;;;;;13.27;nan;100188.81;2101822;28;20037;-74
2023/10/11 04:34:55;;;;;;;26.50;11.85;;;;;;;13.29;nan;100186.63;2107529;28;20028;-78
2023/10/11 04:36:02;;;;;;;29.13;12.68;;;;;;;13.27;nan;100179.91;2106523;28;20044;-75
2023/10/11 04:37:16;;;;;;;30.30;12.77;;;;;;;13.25;nan;100180.25;2099165;28;20036;-76
2023/10/11 04:38:20;;;;;;;30.50;13.45;;;;;;;13.23;nan;100177.78;2101185;28;20058;-75
2023/10/11 04:39:27;;;;;;;25.02;13.30;;;;;;;13.25;nan;100171.34;2090692;28;20032;-74
2023/10/11 04:41:48;;;;;;;28.60;13.55;;;;;;;13.20;nan;100170.31;2107313;28;19908;-76
2023/10/11 04:43:04;;;;;;;27.13;13.60;;;;;;;13.26;nan;100167.53;2107208;28;20102;-75
2023/10/11 04:44:13;;;;;;;27.52;12.85;;;;;;;13.30;nan;100166.59;2093373;28;20033;-74
2023/10/11 04:45:28;;;;;;;28.67;13.55;;;;;;;13.31;nan;100167.41;2102214;28;20066;-71
2023/10/11 04:46:32;;;;;;;29.45;13.65;;;;;;;13.32;nan;100163.59;2112344;28;20915;-72
2023/10/11 04:47:51;;;;;;;29.13;13.68;;;;;;;13.30;nan;100165.81;2105749;28;20036;-72
2023/10/11 04:49:03;;;;;;;28.63;14.00;;;;;;;13.32;nan;100163.59;2105971;28;20033;-72
2023/10/11 04:50:11;;;;;;;27.70;12.95;;;;;;;13.29;nan;100154.22;2103842;28;20039;-71
2023/10/11 04:51:21;;;;;;;27.75;12.82;;;;;;;13.28;nan;100154.53;2105238;28;20143;-71
2023/10/11 04:52:25;;;;;;;29.73;12.73;;;;;;;13.26;nan;100140.53;2105440;28;20158;-71
2023/10/11 04:53:32;;;;;;;30.13;13.65;;;;;;;13.28;nan;100149.94;2097363;28;20943;-71
2023/10/11 04:54:42;;;;;;;26.23;12.70;;;;;;;13.21;nan;100144.94;2097880;28;20029;-70
2023/10/11 04:55:48;;;;;;;27.50;13.57;;;;;;;13.19;nan;100144.44;2100067;28;20028;-73
2023/10/11 04:58:39;;;;;;;27.35;13.63;;;;;;;13.22;nan;100143.03;2114232;28;20150;-73
2023/10/11 05:00:44;;;;;;;28.48;13.85;;;;;;;13.21;nan;100136.03;2113960;28;20035;-72
2023/10/11 05:02:58;;;;;;;27.40;13.18;;;;;;;13.26;nan;100140.53;2113773;28;20051;-73
2023/10/11 05:04:00;;;;;;;32.10;13.65;;;;;;;13.28;nan;100143.72;2106899;28;20024;-73
2023/10/11 05:05:05;;;;;;;32.50;13.77;;;;;;;13.30;nan;100149.59;2107155;28;20830;-72
2023/10/11 05:06:13;;;;;;;28.75;13.25;;;;;;;13.33;nan;100147.09;2102151;28;20163;-72
2023/10/11 05:07:19;;;;;;;27.38;13.77;;;;;;;13.35;nan;100147.59;2082375;28;20034;-73
2023/10/11 05:08:51;;;;;;;30.80;13.68;;;;;;;13.35;nan;100136.78;2085727;28;20152;-72
2023/10/11 05:10:22;;;;;;;28.80;13.73;;;;;;;13.34;nan;100137.91;2101161;28;20029;-72
2023/10/11 05:11:42;;;;;;;27.88;12.43;;;;;;;13.36;nan;100140.28;2093718;28;20111;-72
2023/10/11 05:12:46;;;;;;;26.67;12.43;;;;;;;13.37;nan;100128.41;2094299;28;20060;-72
2023/10/11 05:13:59;;;;;;;31.77;13.85;;;;;;;13.33;nan;100124.69;2109967;27;20102;-72
2023/10/11 05:15:07;;;;;;;27.10;13.85;;;;;;;13.32;nan;100117.72;2110394;28;20040;-72
2023/10/11 05:16:11;;;;;;;28.77;13.70;;;;;;;13.30;nan;100115.31;2113877;27;20079;-72
2023/10/11 05:18:24;;;;;;;25.10;12.68;;;;;;;13.34;nan;100129.00;2111975;27;21215;-73
2023/10/11 05:19:27;;;;;;;29.60;13.70;;;;;;;13.33;nan;100112.00;2105154;28;20013;-71
2023/10/11 05:21:51;;;;;;;29.60;12.48;;;;;;;13.32;nan;100102.31;2101453;27;20087;-71
2023/10/11 05:23:02;;;;;;;25.27;12.90;;;;;;;13.35;nan;100109.00;2115610;27;20035;-72
2023/10/11 05:25:45;;;;;;;22.85;12.60;;;;;;;13.40;nan;100103.47;2104099;28;20120;-72
2023/10/11 05:27:03;;;;;;;31.58;13.27;;;;;;;13.39;nan;100099.16;2093480;28;20753;-71
2023/10/11 05:29:24;;;;;;;25.85;13.38;;;;;;;13.37;nan;100098.69;2107713;27;20032;-71
2023/10/11 05:30:29;;;;;;;27.67;14.77;;;;;;;13.34;nan;100097.41;2115074;27;20068;-72